Nashville, Tennessee
Traffic Map
Current Weather Conditions
Nashville, Tennessee
Few Clouds
Few Clouds
17°
Feels Like: 17°
Wind Chill: 17° Ceiling: Unl
Heat Index: 17° Visibility: 10mi
Dew Point: Wind: 10mph
Humidity: 43% Direction: 20° (NNE)
Pressure: 29.94in Gusts: 0mph
Raw Report DataKBNA 272353Z 02009KT 10SM FEW250 17/04 A2994 RMK AO2 SLP136 T01670039 10200 20167 58004
Traffic Incident Summary
Active as of:
Severity:
Category:
InformationThere was an issue retrieving the traffic information for this location. Please try a different location or try again shortly.
Advertisements
Track Severe Weather on mobile